Alto Horizonte, Brazil
Current Conditions -  °F | °C
As of 4:33 PM on Saturday 25 Oct 2014 (Local Time) from SBAN Reporting Station
Broken Clouds Broken Clouds  
Wind Chill: 72°   Ceiling: 7000
Heat Index: 72°   Visibility: 6mi
Dew Point: 64°   Wind: 8mph
Humidity: 78%   Direction: 150°SSE
Pressure: 30"   Gusts: NA
Location:  14.2°S, 49.34°W
Report Text: SBAN 251833Z 15007KT 9999 SCT007 BKN070 22/18 Q1016
Loading
Personal Weather Stations






























Interactive Weather Map
Tropical Storm Tracking
New forecast layout! Learn more

10-Day Weather Forecast

Advertisements
Track Severe Weather on mobile